sensor_id;sensor_type;location;lat;lon;timestamp;pressure;altitude;pressure_sealevel;temperature;humidity
21730;BME280;11027;51.030;13.812;2023-04-21T00:00:44;100407.53;;;8.06;79.92
21730;BME280;11027;51.030;13.812;2023-04-21T00:03:09;100408.03;;;8.10;80.38
21730;BME280;11027;51.030;13.812;2023-04-21T00:05:35;100401.75;;;8.09;80.49
21730;BME280;11027;51.030;13.812;2023-04-21T00:08:00;100399.38;;;8.06;80.53
21730;BME280;11027;51.030;13.812;2023-04-21T00:10:25;100397.66;;;8.05;80.19
21730;BME280;11027;51.030;13.812;2023-04-21T00:12:50;100400.88;;;8.00;80.20
21730;BME280;11027;51.030;13.812;2023-04-21T00:15:16;100400.31;;;7.97;79.91
21730;BME280;11027;51.030;13.812;2023-04-21T00:17:41;100395.53;;;7.91;79.92
21730;BME280;11027;51.030;13.812;2023-04-21T00:20:07;100393.31;;;7.86;79.89
21730;BME280;11027;51.030;13.812;2023-04-21T00:22:34;100390.19;;;7.81;79.77
21730;BME280;11027;51.030;13.812;2023-04-21T00:24:59;100395.06;;;7.77;79.73
21730;BME280;11027;51.030;13.812;2023-04-21T00:27:25;100391.38;;;7.78;79.82
21730;BME280;11027;51.030;13.812;2023-04-21T00:29:50;100389.97;;;7.74;79.80
21730;BME280;11027;51.030;13.812;2023-04-21T00:32:15;100395.00;;;7.69;79.79
21730;BME280;11027;51.030;13.812;2023-04-21T00:34:40;100382.06;;;7.63;79.65
21730;BME280;11027;51.030;13.812;2023-04-21T00:37:06;100386.81;;;7.61;79.58
21730;BME280;11027;51.030;13.812;2023-04-21T00:39:31;100394.56;;;7.56;79.38
21730;BME280;11027;51.030;13.812;2023-04-21T00:41:56;100390.28;;;7.53;79.60
21730;BME280;11027;51.030;13.812;2023-04-21T00:44:21;100393.88;;;7.54;79.57
21730;BME280;11027;51.030;13.812;2023-04-21T00:46:47;100388.75;;;7.51;79.82
21730;BME280;11027;51.030;13.812;2023-04-21T00:49:13;100391.09;;;7.46;80.15
21730;BME280;11027;51.030;13.812;2023-04-21T00:51:38;100385.97;;;7.43;80.23
21730;BME280;11027;51.030;13.812;2023-04-21T00:54:05;100390.53;;;7.42;80.62
21730;BME280;11027;51.030;13.812;2023-04-21T00:56:32;100390.69;;;7.40;80.56
21730;BME280;11027;51.030;13.812;2023-04-21T00:58:58;100391.72;;;7.39;80.41
21730;BME280;11027;51.030;13.812;2023-04-21T01:01:24;100380.25;;;7.46;80.36
21730;BME280;11027;51.030;13.812;2023-04-21T01:03:50;100381.63;;;7.50;80.18
21730;BME280;11027;51.030;13.812;2023-04-21T01:06:16;100389.06;;;7.48;80.18
21730;BME280;11027;51.030;13.812;2023-04-21T01:08:43;100386.72;;;7.53;80.34
21730;BME280;11027;51.030;13.812;2023-04-21T01:11:10;100386.72;;;7.53;80.57
21730;BME280;11027;51.030;13.812;2023-04-21T01:13:36;100382.88;;;7.55;80.28
21730;BME280;11027;51.030;13.812;2023-04-21T01:16:01;100372.19;;;7.54;80.28
21730;BME280;11027;51.030;13.812;2023-04-21T01:18:27;100383.03;;;7.54;80.14
21730;BME280;11027;51.030;13.812;2023-04-21T01:20:53;100375.19;;;7.51;80.17
21730;BME280;11027;51.030;13.812;2023-04-21T01:23:18;100376.84;;;7.44;80.37
21730;BME280;11027;51.030;13.812;2023-04-21T01:25:45;100370.03;;;7.39;80.69
21730;BME280;11027;51.030;13.812;2023-04-21T01:28:11;100371.16;;;7.37;80.67
21730;BME280;11027;51.030;13.812;2023-04-21T01:30:36;100374.34;;;7.32;80.88
21730;BME280;11027;51.030;13.812;2023-04-21T01:33:02;100372.66;;;7.31;80.96
21730;BME280;11027;51.030;13.812;2023-04-21T01:35:27;100371.25;;;7.27;80.90
21730;BME280;11027;51.030;13.812;2023-04-21T01:37:52;100371.84;;;7.21;81.00
21730;BME280;11027;51.030;13.812;2023-04-21T01:40:18;100373.88;;;7.19;80.95
21730;BME280;11027;51.030;13.812;2023-04-21T01:42:43;100370.78;;;7.14;80.87
21730;BME280;11027;51.030;13.812;2023-04-21T01:45:09;100361.94;;;7.12;80.42
21730;BME280;11027;51.030;13.812;2023-04-21T01:47:35;100358.00;;;7.06;80.22
21730;BME280;11027;51.030;13.812;2023-04-21T01:50:00;100358.06;;;6.96;80.14
21730;BME280;11027;51.030;13.812;2023-04-21T01:52:25;100362.06;;;6.92;80.33
21730;BME280;11027;51.030;13.812;2023-04-21T01:54:50;100357.69;;;6.91;80.01
21730;BME280;11027;51.030;13.812;2023-04-21T01:57:16;100366.41;;;6.85;79.92
21730;BME280;11027;51.030;13.812;2023-04-21T01:59:42;100368.09;;;6.86;79.72
21730;BME280;11027;51.030;13.812;2023-04-21T02:02:08;100370.09;;;6.84;79.67
21730;BME280;11027;51.030;13.812;2023-04-21T02:04:34;100364.69;;;6.84;79.52
21730;BME280;11027;51.030;13.812;2023-04-21T02:06:59;100355.16;;;6.80;79.37
21730;BME280;11027;51.030;13.812;2023-04-21T02:09:24;100352.78;;;6.77;79.33
21730;BME280;11027;51.030;13.812;2023-04-21T02:11:50;100347.34;;;6.77;79.36
21730;BME280;11027;51.030;13.812;2023-04-21T02:14:15;100351.91;;;6.76;79.28
21730;BME280;11027;51.030;13.812;2023-04-21T02:16:40;100354.09;;;6.73;79.11
21730;BME280;11027;51.030;13.812;2023-04-21T02:19:05;100346.25;;;6.70;79.09
21730;BME280;11027;51.030;13.812;2023-04-21T02:21:31;100348.97;;;6.70;78.92
21730;BME280;11027;51.030;13.812;2023-04-21T02:23:56;100343.69;;;6.68;78.65
21730;BME280;11027;51.030;13.812;2023-04-21T02:26:22;100349.41;;;6.65;78.52
21730;BME280;11027;51.030;13.812;2023-04-21T02:28:47;100356.59;;;6.56;78.56
21730;BME280;11027;51.030;13.812;2023-04-21T02:31:13;100354.31;;;6.52;78.54
21730;BME280;11027;51.030;13.812;2023-04-21T02:33:38;100351.03;;;6.48;78.54
21730;BME280;11027;51.030;13.812;2023-04-21T02:36:04;100355.75;;;6.46;78.64
21730;BME280;11027;51.030;13.812;2023-04-21T02:38:29;100352.06;;;6.47;78.73
21730;BME280;11027;51.030;13.812;2023-04-21T02:40:55;100342.31;;;6.54;78.82
21730;BME280;11027;51.030;13.812;2023-04-21T02:43:21;100350.03;;;6.59;79.12
21730;BME280;11027;51.030;13.812;2023-04-21T02:45:46;100344.03;;;6.55;79.16
21730;BME280;11027;51.030;13.812;2023-04-21T02:48:11;100341.47;;;6.54;79.33
21730;BME280;11027;51.030;13.812;2023-04-21T02:50:36;100343.63;;;6.50;79.38
21730;BME280;11027;51.030;13.812;2023-04-21T02:53:02;100348.06;;;6.51;79.49
21730;BME280;11027;51.030;13.812;2023-04-21T02:55:27;100353.47;;;6.51;79.15
21730;BME280;11027;51.030;13.812;2023-04-21T02:57:52;100355.75;;;6.46;79.41
21730;BME280;11027;51.030;13.812;2023-04-21T03:00:18;100362.47;;;6.42;79.27
21730;BME280;11027;51.030;13.812;2023-04-21T03:02:44;100358.06;;;6.41;79.16
21730;BME280;11027;51.030;13.812;2023-04-21T03:05:09;100359.06;;;6.40;78.92
21730;BME280;11027;51.030;13.812;2023-04-21T03:07:35;100354.81;;;6.37;78.76
21730;BME280;11027;51.030;13.812;2023-04-21T03:10:00;100358.44;;;6.28;78.80
21730;BME280;11027;51.030;13.812;2023-04-21T03:12:26;100356.69;;;6.27;78.98
21730;BME280;11027;51.030;13.812;2023-04-21T03:14:51;100350.44;;;6.27;79.16
21730;BME280;11027;51.030;13.812;2023-04-21T03:17:16;100357.03;;;6.24;79.47
21730;BME280;11027;51.030;13.812;2023-04-21T03:19:41;100354.31;;;6.24;79.67
21730;BME280;11027;51.030;13.812;2023-04-21T03:22:07;100352.59;;;6.23;79.87
21730;BME280;11027;51.030;13.812;2023-04-21T03:24:32;100352.72;;;6.21;79.96
21730;BME280;11027;51.030;13.812;2023-04-21T03:26:57;100344.94;;;6.18;80.05
21730;BME280;11027;51.030;13.812;2023-04-21T03:29:23;100346.94;;;6.16;80.02
21730;BME280;11027;51.030;13.812;2023-04-21T03:31:48;100348.75;;;6.16;79.99
21730;BME280;11027;51.030;13.812;2023-04-21T03:34:14;100354.72;;;6.19;79.91
21730;BME280;11027;51.030;13.812;2023-04-21T03:36:39;100355.88;;;6.17;80.02
21730;BME280;11027;51.030;13.812;2023-04-21T03:39:04;100353.31;;;6.15;79.98
21730;BME280;11027;51.030;13.812;2023-04-21T03:41:30;100355.31;;;6.13;79.87
21730;BME280;11027;51.030;13.812;2023-04-21T03:43:55;100351.63;;;6.14;79.95
21730;BME280;11027;51.030;13.812;2023-04-21T03:46:21;100357.31;;;6.11;80.06
21730;BME280;11027;51.030;13.812;2023-04-21T03:48:47;100345.09;;;6.07;80.15
21730;BME280;11027;51.030;13.812;2023-04-21T03:51:12;100352.50;;;6.05;79.99
21730;BME280;11027;51.030;13.812;2023-04-21T03:53:37;100352.81;;;6.02;79.80
21730;BME280;11027;51.030;13.812;2023-04-21T03:56:03;100354.81;;;6.00;79.96
21730;BME280;11027;51.030;13.812;2023-04-21T03:58:28;100356.81;;;5.98;80.04
21730;BME280;11027;51.030;13.812;2023-04-21T04:00:53;100347.69;;;5.99;80.12
21730;BME280;11027;51.030;13.812;2023-04-21T04:03:19;100360.22;;;6.00;80.12
21730;BME280;11027;51.030;13.812;2023-04-21T04:05:44;100373.56;;;6.01;80.09
21730;BME280;11027;51.030;13.812;2023-04-21T04:08:09;100378.13;;;6.01;80.05
21730;BME280;11027;51.030;13.812;2023-04-21T04:10:34;100373.19;;;5.96;80.11
21730;BME280;11027;51.030;13.812;2023-04-21T04:13:00;100380.81;;;5.91;80.13
21730;BME280;11027;51.030;13.812;2023-04-21T04:15:25;100383.66;;;5.90;80.31
21730;BME280;11027;51.030;13.812;2023-04-21T04:17:51;100376.84;;;5.86;80.26
21730;BME280;11027;51.030;13.812;2023-04-21T04:20:16;100378.00;;;5.83;80.48
21730;BME280;11027;51.030;13.812;2023-04-21T04:22:41;100386.94;;;5.84;80.50
21730;BME280;11027;51.030;13.812;2023-04-21T04:25:07;100379.84;;;5.82;80.20
21730;BME280;11027;51.030;13.812;2023-04-21T04:27:32;100377.84;;;5.85;80.32
21730;BME280;11027;51.030;13.812;2023-04-21T04:29:58;100380.44;;;5.86;80.34
21730;BME280;11027;51.030;13.812;2023-04-21T04:32:23;100379.56;;;5.86;80.49
21730;BME280;11027;51.030;13.812;2023-04-21T04:34:52;100388.66;;;5.85;80.52
21730;BME280;11027;51.030;13.812;2023-04-21T04:37:20;100380.25;;;5.88;80.61
21730;BME280;11027;51.030;13.812;2023-04-21T04:39:46;100381.28;;;5.87;80.56
21730;BME280;11027;51.030;13.812;2023-04-21T04:42:11;100386.69;;;5.87;80.53
21730;BME280;11027;51.030;13.812;2023-04-21T04:44:36;100382.13;;;5.87;80.61
21730;BME280;11027;51.030;13.812;2023-04-21T04:47:02;100385.84;;;5.86;80.32
21730;BME280;11027;51.030;13.812;2023-04-21T04:49:28;100387.66;;;5.86;80.13
21730;BME280;11027;51.030;13.812;2023-04-21T04:51:53;100383.25;;;5.85;80.10
21730;BME280;11027;51.030;13.812;2023-04-21T04:54:18;100389.38;;;5.87;80.05
21730;BME280;11027;51.030;13.812;2023-04-21T04:56:44;100387.25;;;5.90;79.98
21730;BME280;11027;51.030;13.812;2023-04-21T04:59:09;100392.78;;;5.89;79.85
21730;BME280;11027;51.030;13.812;2023-04-21T05:01:35;100392.22;;;5.85;79.98
21730;BME280;11027;51.030;13.812;2023-04-21T05:04:02;100384.97;;;5.86;80.00
21730;BME280;11027;51.030;13.812;2023-04-21T05:06:27;100391.25;;;5.86;80.31
21730;BME280;11027;51.030;13.812;2023-04-21T05:08:52;100391.78;;;5.90;80.42
21730;BME280;11027;51.030;13.812;2023-04-21T05:11:18;100398.06;;;5.90;80.68
21730;BME280;11027;51.030;13.812;2023-04-21T05:13:43;100402.31;;;5.93;80.67
21730;BME280;11027;51.030;13.812;2023-04-21T05:16:08;100397.38;;;5.98;80.82
21730;BME280;11027;51.030;13.812;2023-04-21T05:18:35;100397.78;;;6.03;80.73
21730;BME280;11027;51.030;13.812;2023-04-21T05:21:00;100398.22;;;6.08;80.82
21730;BME280;11027;51.030;13.812;2023-04-21T05:23:25;100405.44;;;6.08;80.97
21730;BME280;11027;51.030;13.812;2023-04-21T05:25:51;100410.72;;;6.09;81.11
21730;BME280;11027;51.030;13.812;2023-04-21T05:28:16;100409.75;;;6.10;81.39
21730;BME280;11027;51.030;13.812;2023-04-21T05:30:41;100397.91;;;6.11;81.52
21730;BME280;11027;51.030;13.812;2023-04-21T05:33:07;100400.31;;;6.14;81.69
21730;BME280;11027;51.030;13.812;2023-04-21T05:35:33;100403.56;;;6.18;81.59
21730;BME280;11027;51.030;13.812;2023-04-21T05:37:59;100403.16;;;6.23;81.95
21730;BME280;11027;51.030;13.812;2023-04-21T05:40:24;100399.16;;;6.27;82.02
21730;BME280;11027;51.030;13.812;2023-04-21T05:42:49;100397.16;;;6.29;82.26
21730;BME280;11027;51.030;13.812;2023-04-21T05:45:14;100395.00;;;6.32;82.53
21730;BME280;11027;51.030;13.812;2023-04-21T05:47:40;100395.16;;;6.31;83.07
21730;BME280;11027;51.030;13.812;2023-04-21T05:50:06;100395.16;;;6.31;83.54
21730;BME280;11027;51.030;13.812;2023-04-21T05:52:32;100396.69;;;6.33;83.83
21730;BME280;11027;51.030;13.812;2023-04-21T05:54:57;100390.56;;;6.41;83.83
21730;BME280;11027;51.030;13.812;2023-04-21T05:57:23;100392.66;;;6.47;83.79
21730;BME280;11027;51.030;13.812;2023-04-21T05:59:49;100385.94;;;6.51;83.82
21730;BME280;11027;51.030;13.812;2023-04-21T06:02:14;100394.50;;;6.56;83.84
21730;BME280;11027;51.030;13.812;2023-04-21T06:04:39;100392.16;;;6.61;83.84
21730;BME280;11027;51.030;13.812;2023-04-21T06:07:06;100388.16;;;6.66;84.05
21730;BME280;11027;51.030;13.812;2023-04-21T06:09:32;100376.16;;;6.68;84.14
21730;BME280;11027;51.030;13.812;2023-04-21T06:11:57;100382.16;;;6.72;84.39
21730;BME280;11027;51.030;13.812;2023-04-21T06:14:22;100381.53;;;6.78;84.48
21730;BME280;11027;51.030;13.812;2023-04-21T06:16:47;100377.53;;;6.82;84.56
21730;BME280;11027;51.030;13.812;2023-04-21T06:19:13;100376.22;;;6.86;84.66
21730;BME280;11027;51.030;13.812;2023-04-21T06:21:38;100378.50;;;6.91;84.73
21730;BME280;11027;51.030;13.812;2023-04-21T06:24:03;100373.47;;;6.96;84.79
21730;BME280;11027;51.030;13.812;2023-04-21T06:26:29;100370.28;;;7.00;84.88
21730;BME280;11027;51.030;13.812;2023-04-21T06:28:54;100368.81;;;7.06;84.97
21730;BME280;11027;51.030;13.812;2023-04-21T06:31:19;100363.97;;;7.10;85.05
21730;BME280;11027;51.030;13.812;2023-04-21T06:33:45;100366.19;;;7.14;85.27
21730;BME280;11027;51.030;13.812;2023-04-21T06:36:10;100369.47;;;7.18;85.40
21730;BME280;11027;51.030;13.812;2023-04-21T06:38:35;100361.75;;;7.23;85.61
21730;BME280;11027;51.030;13.812;2023-04-21T06:41:01;100359.53;;;7.27;85.91
21730;BME280;11027;51.030;13.812;2023-04-21T06:43:28;100364.91;;;7.36;86.02
21730;BME280;11027;51.030;13.812;2023-04-21T06:45:53;100362.25;;;7.45;86.16
21730;BME280;11027;51.030;13.812;2023-04-21T06:48:19;100366.22;;;7.50;86.07
21730;BME280;11027;51.030;13.812;2023-04-21T06:50:44;100363.03;;;7.55;85.91
21730;BME280;11027;51.030;13.812;2023-04-21T06:53:10;100359.88;;;7.59;85.95
21730;BME280;11027;51.030;13.812;2023-04-21T06:55:35;100360.09;;;7.66;85.88
21730;BME280;11027;51.030;13.812;2023-04-21T06:58:01;100364.88;;;7.72;86.03
21730;BME280;11027;51.030;13.812;2023-04-21T07:00:26;100358.81;;;7.78;86.31
21730;BME280;11027;51.030;13.812;2023-04-21T07:02:51;100364.31;;;7.87;86.21
21730;BME280;11027;51.030;13.812;2023-04-21T07:05:17;100360.13;;;7.92;86.28
21730;BME280;11027;51.030;13.812;2023-04-21T07:07:42;100356.91;;;7.97;86.15
21730;BME280;11027;51.030;13.812;2023-04-21T07:10:08;100354.59;;;8.02;86.22
21730;BME280;11027;51.030;13.812;2023-04-21T07:12:33;100350.53;;;8.06;86.21
21730;BME280;11027;51.030;13.812;2023-04-21T07:14:58;100352.78;;;8.11;86.25
21730;BME280;11027;51.030;13.812;2023-04-21T07:17:23;100352.13;;;8.17;85.96
21730;BME280;11027;51.030;13.812;2023-04-21T07:19:49;100346.91;;;8.24;86.44
21730;BME280;11027;51.030;13.812;2023-04-21T07:22:14;100350.00;;;8.29;86.49
21730;BME280;11027;51.030;13.812;2023-04-21T07:24:39;100353.06;;;8.34;86.57
21730;BME280;11027;51.030;13.812;2023-04-21T07:27:05;100347.84;;;8.40;86.77
21730;BME280;11027;51.030;13.812;2023-04-21T07:29:30;100344.34;;;8.48;86.87
21730;BME280;11027;51.030;13.812;2023-04-21T07:31:55;100336.75;;;8.60;87.02
21730;BME280;11027;51.030;13.812;2023-04-21T07:34:22;100337.66;;;8.69;87.12
21730;BME280;11027;51.030;13.812;2023-04-21T07:36:49;100332.25;;;8.77;87.15
21730;BME280;11027;51.030;13.812;2023-04-21T07:39:14;100331.25;;;8.86;86.98
21730;BME280;11027;51.030;13.812;2023-04-21T07:41:40;100323.97;;;8.95;87.00
21730;BME280;11027;51.030;13.812;2023-04-21T07:44:05;100322.97;;;9.04;86.86
21730;BME280;11027;51.030;13.812;2023-04-21T07:46:30;100322.13;;;9.12;86.55
21730;BME280;11027;51.030;13.812;2023-04-21T07:48:57;100324.19;;;9.18;86.54
21730;BME280;11027;51.030;13.812;2023-04-21T07:51:23;100317.06;;;9.25;86.38
21730;BME280;11027;51.030;13.812;2023-04-21T07:53:49;100326.22;;;9.32;86.50
21730;BME280;11027;51.030;13.812;2023-04-21T07:56:14;100316.03;;;9.43;86.62
21730;BME280;11027;51.030;13.812;2023-04-21T07:58:40;100320.47;;;9.52;86.68
21730;BME280;11027;51.030;13.812;2023-04-21T08:01:05;100319.44;;;9.61;86.41
21730;BME280;11027;51.030;13.812;2023-04-21T08:03:31;100320.47;;;9.68;86.23
21730;BME280;11027;51.030;13.812;2023-04-21T08:05:56;100310.41;;;9.77;86.12
21730;BME280;11027;51.030;13.812;2023-04-21T08:08:21;100303.41;;;9.91;86.09
21730;BME280;11027;51.030;13.812;2023-04-21T08:10:46;100298.31;;;10.04;85.94
21730;BME280;11027;51.030;13.812;2023-04-21T08:13:12;100301.84;;;10.13;85.65
21730;BME280;11027;51.030;13.812;2023-04-21T08:15:37;100306.06;;;10.24;85.19
21730;BME280;11027;51.030;13.812;2023-04-21T08:18:02;100288.34;;;10.36;84.89
21730;BME280;11027;51.030;13.812;2023-04-21T08:20:27;100288.31;;;10.44;84.10
21730;BME280;11027;51.030;13.812;2023-04-21T08:22:53;100281.47;;;10.56;83.63
21730;BME280;11027;51.030;13.812;2023-04-21T08:25:18;100287.66;;;10.73;82.66
21730;BME280;11027;51.030;13.812;2023-04-21T08:27:43;100277.16;;;10.93;81.22
21730;BME280;11027;51.030;13.812;2023-04-21T08:30:09;100278.38;;;11.14;79.45
21730;BME280;11027;51.030;13.812;2023-04-21T08:32:34;100275.09;;;11.41;76.59
21730;BME280;11027;51.030;13.812;2023-04-21T08:35:00;100280.50;;;11.65;73.51
21730;BME280;11027;51.030;13.812;2023-04-21T08:37:25;100275.38;;;11.85;71.93
21730;BME280;11027;51.030;13.812;2023-04-21T08:39:50;100267.34;;;12.06;68.86
21730;BME280;11027;51.030;13.812;2023-04-21T08:42:17;100264.88;;;12.26;67.71
21730;BME280;11027;51.030;13.812;2023-04-21T08:44:43;100268.63;;;12.40;66.09
21730;BME280;11027;51.030;13.812;2023-04-21T08:47:09;100260.78;;;12.52;63.67
21730;BME280;11027;51.030;13.812;2023-04-21T08:49:37;100267.66;;;12.63;63.54
21730;BME280;11027;51.030;13.812;2023-04-21T08:52:03;100265.72;;;12.78;61.13
21730;BME280;11027;51.030;13.812;2023-04-21T08:54:28;100261.72;;;12.95;60.91
21730;BME280;11027;51.030;13.812;2023-04-21T08:56:54;100259.69;;;13.04;60.02
21730;BME280;11027;51.030;13.812;2023-04-21T08:59:19;100262.59;;;13.17;59.20
21730;BME280;11027;51.030;13.812;2023-04-21T09:02:07;100270.47;;;13.27;58.08
21730;BME280;11027;51.030;13.812;2023-04-21T09:04:36;100264.47;;;13.38;57.76
21730;BME280;11027;51.030;13.812;2023-04-21T09:07:02;100268.13;;;13.46;57.60
21730;BME280;11027;51.030;13.812;2023-04-21T09:09:27;100263.56;;;13.53;56.80
21730;BME280;11027;51.030;13.812;2023-04-21T09:11:54;100261.72;;;13.60;56.58
21730;BME280;11027;51.030;13.812;2023-04-21T09:14:21;100258.56;;;13.63;55.57
21730;BME280;11027;51.030;13.812;2023-04-21T09:16:58;100252.31;;;13.69;55.84
21730;BME280;11027;51.030;13.812;2023-04-21T09:19:29;100251.94;;;13.72;55.45
21730;BME280;11027;51.030;13.812;2023-04-21T09:21:54;100252.41;;;13.83;55.81
21730;BME280;11027;51.030;13.812;2023-04-21T09:24:20;100249.94;;;13.88;55.04
21730;BME280;11027;51.030;13.812;2023-04-21T09:26:50;100243.25;;;13.97;54.09
21730;BME280;11027;51.030;13.812;2023-04-21T09:29:16;100245.38;;;14.01;54.46
21730;BME280;11027;51.030;13.812;2023-04-21T09:31:43;100244.78;;;14.06;53.42
21730;BME280;11027;51.030;13.812;2023-04-21T09:34:25;100239.53;;;14.11;52.67
21730;BME280;11027;51.030;13.812;2023-04-21T09:37:01;100245.72;;;14.20;52.48
21730;BME280;11027;51.030;13.812;2023-04-21T09:39:31;100236.44;;;14.21;51.80
21730;BME280;11027;51.030;13.812;2023-04-21T09:41:57;100230.75;;;14.23;51.67
21730;BME280;11027;51.030;13.812;2023-04-21T09:44:26;100233.72;;;14.28;48.80
21730;BME280;11027;51.030;13.812;2023-04-21T09:46:56;100228.31;;;14.41;50.01
21730;BME280;11027;51.030;13.812;2023-04-21T09:49:25;100219.56;;;14.66;51.49
21730;BME280;11027;51.030;13.812;2023-04-21T09:51:54;100218.16;;;14.83;51.84
21730;BME280;11027;51.030;13.812;2023-04-21T09:54:20;100218.59;;;15.00;50.98
21730;BME280;11027;51.030;13.812;2023-04-21T09:56:48;100225.59;;;15.16;49.70
21730;BME280;11027;51.030;13.812;2023-04-21T09:59:19;100229.84;;;15.25;48.60
21730;BME280;11027;51.030;13.812;2023-04-21T10:01:50;100221.38;;;15.33;48.57
21730;BME280;11027;51.030;13.812;2023-04-21T10:04:17;100220.09;;;15.36;47.56
21730;BME280;11027;51.030;13.812;2023-04-21T10:06:42;100219.28;;;15.35;46.87
21730;BME280;11027;51.030;13.812;2023-04-21T10:09:09;100216.72;;;15.40;47.01
21730;BME280;11027;51.030;13.812;2023-04-21T10:11:35;100217.78;;;15.39;47.14
21730;BME280;11027;51.030;13.812;2023-04-21T10:14:02;100214.63;;;15.43;46.98
21730;BME280;11027;51.030;13.812;2023-04-21T10:16:28;100205.34;;;15.44;46.49
21730;BME280;11027;51.030;13.812;2023-04-21T10:18:53;100204.25;;;15.45;46.38
21730;BME280;11027;51.030;13.812;2023-04-21T10:21:20;100206.78;;;15.53;46.63
21730;BME280;11027;51.030;13.812;2023-04-21T10:23:49;100200.25;;;15.60;46.09
21730;BME280;11027;51.030;13.812;2023-04-21T10:26:22;100193.06;;;15.66;45.75
21730;BME280;11027;51.030;13.812;2023-04-21T10:29:01;100185.47;;;15.68;45.80
21730;BME280;11027;51.030;13.812;2023-04-21T10:31:32;100188.84;;;15.70;45.73
21730;BME280;11027;51.030;13.812;2023-04-21T10:39:09;100177.41;;;15.87;45.09
21730;BME280;11027;51.030;13.812;2023-04-21T10:41:37;100184.63;;;15.88;45.50
21730;BME280;11027;51.030;13.812;2023-04-21T10:44:13;100175.72;;;15.92;45.40
21730;BME280;11027;51.030;13.812;2023-04-21T10:46:44;100181.59;;;16.03;45.75
21730;BME280;11027;51.030;13.812;2023-04-21T10:49:27;100178.81;;;16.09;45.24
21730;BME280;11027;51.030;13.812;2023-04-21T10:54:41;100162.47;;;16.28;44.94
21730;BME280;11027;51.030;13.812;2023-04-21T10:57:09;100168.34;;;16.38;44.51
21730;BME280;11027;51.030;13.812;2023-04-21T10:59:35;100174.25;;;16.48;44.82
21730;BME280;11027;51.030;13.812;2023-04-21T11:02:02;100160.22;;;16.56;43.91
21730;BME280;11027;51.030;13.812;2023-04-21T11:04:27;100172.38;;;16.74;42.90
21730;BME280;11027;51.030;13.812;2023-04-21T11:07:10;100174.81;;;16.95;42.75
21730;BME280;11027;51.030;13.812;2023-04-21T11:09:38;100167.53;;;17.08;42.94
21730;BME280;11027;51.030;13.812;2023-04-21T11:12:06;100151.34;;;17.18;41.93
21730;BME280;11027;51.030;13.812;2023-04-21T11:14:33;100163.78;;;17.27;41.84
21730;BME280;11027;51.030;13.812;2023-04-21T11:17:00;100153.41;;;17.29;40.79
21730;BME280;11027;51.030;13.812;2023-04-21T11:19:26;100156.75;;;17.31;40.80
21730;BME280;11027;51.030;13.812;2023-04-21T11:21:52;100151.63;;;17.35;40.74
21730;BME280;11027;51.030;13.812;2023-04-21T11:24:19;100149.66;;;17.42;41.57
21730;BME280;11027;51.030;13.812;2023-04-21T11:26:45;100150.59;;;17.54;41.54
21730;BME280;11027;51.030;13.812;2023-04-21T11:29:10;100146.72;;;17.62;41.35
21730;BME280;11027;51.030;13.812;2023-04-21T11:31:37;100149.63;;;17.67;41.30
21730;BME280;11027;51.030;13.812;2023-04-21T11:34:04;100145.97;;;17.73;41.38
21730;BME280;11027;51.030;13.812;2023-04-21T11:36:43;100146.50;;;17.82;41.34
21730;BME280;11027;51.030;13.812;2023-04-21T11:39:10;100135.91;;;17.86;40.56
21730;BME280;11027;51.030;13.812;2023-04-21T11:41:40;100143.09;;;17.87;40.54
21730;BME280;11027;51.030;13.812;2023-04-21T11:44:06;100141.72;;;17.96;40.66
21730;BME280;11027;51.030;13.812;2023-04-21T11:46:32;100135.75;;;17.99;39.85
21730;BME280;11027;51.030;13.812;2023-04-21T11:49:05;100140.81;;;18.02;39.74
21730;BME280;11027;51.030;13.812;2023-04-21T11:51:38;100146.72;;;18.06;40.18
21730;BME280;11027;51.030;13.812;2023-04-21T11:54:16;100142.78;;;18.13;40.37
21730;BME280;11027;51.030;13.812;2023-04-21T11:56:45;100130.81;;;18.19;40.58
21730;BME280;11027;51.030;13.812;2023-04-21T11:59:13;100130.81;;;18.19;40.86
21730;BME280;11027;51.030;13.812;2023-04-21T12:01:46;100135.41;;;18.26;40.04
21730;BME280;11027;51.030;13.812;2023-04-21T12:04:19;100128.41;;;18.42;39.76
21730;BME280;11027;51.030;13.812;2023-04-21T12:06:46;100124.75;;;18.59;39.57
21730;BME280;11027;51.030;13.812;2023-04-21T12:09:19;100123.66;;;18.79;38.68
21730;BME280;11027;51.030;13.812;2023-04-21T12:11:52;100130.53;;;19.00;38.82
21730;BME280;11027;51.030;13.812;2023-04-21T12:14:19;100131.91;;;19.21;38.99
21730;BME280;11027;51.030;13.812;2023-04-21T12:16:47;100123.97;;;19.36;38.77
21730;BME280;11027;51.030;13.812;2023-04-21T12:19:21;100123.63;;;19.45;37.72
21730;BME280;11027;51.030;13.812;2023-04-21T12:21:52;100124.34;;;19.52;37.04
21730;BME280;11027;51.030;13.812;2023-04-21T12:24:17;100114.00;;;19.59;37.19
21730;BME280;11027;51.030;13.812;2023-04-21T12:26:42;100114.88;;;19.71;37.06
21730;BME280;11027;51.030;13.812;2023-04-21T12:29:08;100113.78;;;19.84;37.59
21730;BME280;11027;51.030;13.812;2023-04-21T12:31:33;100107.72;;;19.99;37.46
21730;BME280;11027;51.030;13.812;2023-04-21T12:33:58;100102.41;;;20.09;36.35
21730;BME280;11027;51.030;13.812;2023-04-21T12:36:24;100100.34;;;20.16;35.84
21730;BME280;11027;51.030;13.812;2023-04-21T12:38:49;100094.50;;;20.30;36.21
21730;BME280;11027;51.030;13.812;2023-04-21T12:41:14;100106.47;;;20.47;36.63
21730;BME280;11027;51.030;13.812;2023-04-21T12:43:39;100098.81;;;20.66;36.10
21730;BME280;11027;51.030;13.812;2023-04-21T12:46:05;100103.22;;;20.79;35.62
21730;BME280;11027;51.030;13.812;2023-04-21T12:48:30;100107.94;;;20.95;35.41